sensor_id;sensor_type;location;lat;lon;timestamp;pressure;altitude;pressure_sealevel;temperature;humidity
59419;BME280;45224;50.904;6.038;2023-07-30T00:01:05;99267.72;;;18.02;77.31
59419;BME280;45224;50.904;6.038;2023-07-30T00:02:35;99255.03;;;17.93;77.60
59419;BME280;45224;50.904;6.038;2023-07-30T00:04:06;99261.09;;;17.93;77.54
59419;BME280;45224;50.904;6.038;2023-07-30T00:05:36;99271.38;;;17.98;77.24
59419;BME280;45224;50.904;6.038;2023-07-30T00:07:07;99263.53;;;17.98;77.46
59419;BME280;45224;50.904;6.038;2023-07-30T00:08:37;99255.03;;;17.93;77.61
59419;BME280;45224;50.904;6.038;2023-07-30T00:10:13;99257.81;;;17.88;77.94
59419;BME280;45224;50.904;6.038;2023-07-30T00:11:44;99260.38;;;17.90;77.95
59419;BME280;45224;50.904;6.038;2023-07-30T00:13:14;99269.91;;;17.91;78.25
59419;BME280;45224;50.904;6.038;2023-07-30T00:14:45;99262.47;;;17.80;78.78
59419;BME280;45224;50.904;6.038;2023-07-30T00:16:15;99271.19;;;17.79;79.71
59419;BME280;45224;50.904;6.038;2023-07-30T00:17:46;99257.97;;;17.83;79.31
59419;BME280;45224;50.904;6.038;2023-07-30T00:19:16;99253.47;;;17.87;79.24
59419;BME280;45224;50.904;6.038;2023-07-30T00:20:47;99266.81;;;17.79;80.22
59419;BME280;45224;50.904;6.038;2023-07-30T00:22:17;99268.81;;;17.73;80.53
59419;BME280;45224;50.904;6.038;2023-07-30T00:23:48;99275.94;;;17.69;81.50
59419;BME280;45224;50.904;6.038;2023-07-30T00:25:18;99272.47;;;17.68;81.23
59419;BME280;45224;50.904;6.038;2023-07-30T00:26:48;99270.59;;;17.72;81.01
59419;BME280;45224;50.904;6.038;2023-07-30T00:28:19;99267.13;;;17.72;81.48
59419;BME280;45224;50.904;6.038;2023-07-30T00:29:49;99275.75;;;17.74;81.56
59419;BME280;45224;50.904;6.038;2023-07-30T00:31:20;99272.41;;;17.70;82.10
59419;BME280;45224;50.904;6.038;2023-07-30T00:32:51;99270.81;;;17.66;81.79
59419;BME280;45224;50.904;6.038;2023-07-30T00:34:21;99274.25;;;17.66;82.27
59419;BME280;45224;50.904;6.038;2023-07-30T00:35:52;99275.09;;;17.68;81.72
59419;BME280;45224;50.904;6.038;2023-07-30T00:37:22;99273.25;;;17.70;82.08
59419;BME280;45224;50.904;6.038;2023-07-30T00:38:54;99276.50;;;17.77;81.78
59419;BME280;45224;50.904;6.038;2023-07-30T00:40:24;99280.72;;;17.81;81.47
59419;BME280;45224;50.904;6.038;2023-07-30T00:41:55;99279.84;;;17.81;81.60
59419;BME280;45224;50.904;6.038;2023-07-30T00:43:25;99287.63;;;17.82;81.68
59419;BME280;45224;50.904;6.038;2023-07-30T00:44:56;99277.22;;;17.81;81.75
59419;BME280;45224;50.904;6.038;2023-07-30T00:46:28;99279.94;;;17.78;82.07
59419;BME280;45224;50.904;6.038;2023-07-30T00:47:58;99271.44;;;17.73;82.50
59419;BME280;45224;50.904;6.038;2023-07-30T00:49:29;99261.31;;;17.63;82.62
59419;BME280;45224;50.904;6.038;2023-07-30T00:51:00;99273.16;;;17.74;82.68
59419;BME280;45224;50.904;6.038;2023-07-30T00:52:30;99278.25;;;17.77;82.42
59419;BME280;45224;50.904;6.038;2023-07-30T00:54:02;99283.38;;;17.80;82.58
59419;BME280;45224;50.904;6.038;2023-07-30T00:55:33;99266.09;;;17.76;82.02
59419;BME280;45224;50.904;6.038;2023-07-30T00:57:05;99281.22;;;17.67;82.98
59419;BME280;45224;50.904;6.038;2023-07-30T00:58:37;99276.31;;;17.82;82.44
59419;BME280;45224;50.904;6.038;2023-07-30T01:00:08;99280.88;;;17.77;82.54
59419;BME280;45224;50.904;6.038;2023-07-30T01:01:41;99280.88;;;17.77;82.70
59419;BME280;45224;50.904;6.038;2023-07-30T01:03:13;99274.38;;;17.63;83.19
59419;BME280;45224;50.904;6.038;2023-07-30T01:04:44;99280.69;;;17.58;83.01
59419;BME280;45224;50.904;6.038;2023-07-30T01:06:14;99278.72;;;17.64;82.57
59419;BME280;45224;50.904;6.038;2023-07-30T01:07:45;99285.53;;;17.68;82.86
59419;BME280;45224;50.904;6.038;2023-07-30T01:09:15;99285.19;;;17.78;82.20
59419;BME280;45224;50.904;6.038;2023-07-30T01:10:46;99281.53;;;17.82;81.93
59419;BME280;45224;50.904;6.038;2023-07-30T01:12:17;99282.50;;;17.79;82.17
59419;BME280;45224;50.904;6.038;2023-07-30T01:13:47;99282.63;;;17.76;82.37
59419;BME280;45224;50.904;6.038;2023-07-30T01:15:18;99278.94;;;17.82;81.85
59419;BME280;45224;50.904;6.038;2023-07-30T01:16:49;99279.72;;;17.84;81.55
59419;BME280;45224;50.904;6.038;2023-07-30T01:18:20;99280.59;;;17.84;81.62
59419;BME280;45224;50.904;6.038;2023-07-30T01:19:53;99292.13;;;17.79;81.63
59419;BME280;45224;50.904;6.038;2023-07-30T01:21:25;99286.88;;;17.79;81.22
59419;BME280;45224;50.904;6.038;2023-07-30T01:23:00;99290.72;;;17.70;81.72
59419;BME280;45224;50.904;6.038;2023-07-30T01:24:31;99297.25;;;17.82;81.19
59419;BME280;45224;50.904;6.038;2023-07-30T01:26:10;99297.13;;;17.85;80.96
59419;BME280;45224;50.904;6.038;2023-07-30T01:27:52;99300.53;;;17.87;80.68
59419;BME280;45224;50.904;6.038;2023-07-30T01:29:40;99294.50;;;17.85;81.13
59419;BME280;45224;50.904;6.038;2023-07-30T01:31:14;99291.22;;;17.80;81.16
59419;BME280;45224;50.904;6.038;2023-07-30T01:32:49;99283.03;;;17.89;80.48
59419;BME280;45224;50.904;6.038;2023-07-30T01:34:20;99295.34;;;17.85;80.40
59419;BME280;45224;50.904;6.038;2023-07-30T01:35:53;99302.16;;;17.91;80.08
59419;BME280;45224;50.904;6.038;2023-07-30T01:37:25;99292.91;;;17.81;80.79
59419;BME280;45224;50.904;6.038;2023-07-30T01:38:56;99306.91;;;17.80;80.75
59419;BME280;45224;50.904;6.038;2023-07-30T01:40:27;99290.28;;;17.81;80.28
59419;BME280;45224;50.904;6.038;2023-07-30T01:41:58;99312.34;;;17.97;79.82
59419;BME280;45224;50.904;6.038;2023-07-30T01:43:29;99304.03;;;17.86;80.46
59419;BME280;45224;50.904;6.038;2023-07-30T01:44:59;99297.84;;;17.65;81.24
59419;BME280;45224;50.904;6.038;2023-07-30T01:46:29;99307.06;;;17.75;80.89
59419;BME280;45224;50.904;6.038;2023-07-30T01:48:00;99308.69;;;17.78;80.78
59419;BME280;45224;50.904;6.038;2023-07-30T01:49:30;99303.69;;;17.73;81.00
59419;BME280;45224;50.904;6.038;2023-07-30T01:51:01;99302.19;;;17.66;81.21
59419;BME280;45224;50.904;6.038;2023-07-30T01:52:31;99298.78;;;17.64;81.24
59419;BME280;45224;50.904;6.038;2023-07-30T01:54:02;99303.13;;;17.63;81.06
59419;BME280;45224;50.904;6.038;2023-07-30T01:55:32;99309.00;;;17.70;80.50
59419;BME280;45224;50.904;6.038;2023-07-30T01:57:03;99311.69;;;17.68;80.61
59419;BME280;45224;50.904;6.038;2023-07-30T01:58:34;99308.13;;;17.69;80.76
59419;BME280;45224;50.904;6.038;2023-07-30T02:00:05;99299.56;;;17.66;80.83
59419;BME280;45224;50.904;6.038;2023-07-30T02:01:36;99304.84;;;17.64;80.81
59419;BME280;45224;50.904;6.038;2023-07-30T02:03:06;99312.59;;;17.67;80.56
59419;BME280;45224;50.904;6.038;2023-07-30T02:04:37;99300.47;;;17.65;80.40
59419;BME280;45224;50.904;6.038;2023-07-30T02:06:07;99311.50;;;17.73;79.91
59419;BME280;45224;50.904;6.038;2023-07-30T02:07:38;99308.13;;;17.69;79.65
59419;BME280;45224;50.904;6.038;2023-07-30T02:09:08;99308.34;;;17.63;79.27
59419;BME280;45224;50.904;6.038;2023-07-30T02:10:39;99312.13;;;17.56;79.38
59419;BME280;45224;50.904;6.038;2023-07-30T02:12:09;99314.47;;;17.64;78.92
59419;BME280;45224;50.904;6.038;2023-07-30T02:13:41;99315.69;;;17.53;78.63
59419;BME280;45224;50.904;6.038;2023-07-30T02:15:12;99327.59;;;17.62;77.99
59419;BME280;45224;50.904;6.038;2023-07-30T02:16:43;99317.56;;;17.50;78.23
59419;BME280;45224;50.904;6.038;2023-07-30T02:18:14;99321.31;;;17.43;78.01
59419;BME280;45224;50.904;6.038;2023-07-30T02:19:44;99317.00;;;17.42;77.61
59419;BME280;45224;50.904;6.038;2023-07-30T02:21:15;99332.63;;;17.43;78.47
59419;BME280;45224;50.904;6.038;2023-07-30T02:22:45;99326.75;;;17.37;78.15
59419;BME280;45224;50.904;6.038;2023-07-30T02:24:16;99327.03;;;17.29;76.17
59419;BME280;45224;50.904;6.038;2023-07-30T02:25:46;99324.19;;;17.10;76.69
59419;BME280;45224;50.904;6.038;2023-07-30T02:27:17;99332.75;;;17.15;76.60
59419;BME280;45224;50.904;6.038;2023-07-30T02:28:47;99327.03;;;17.04;77.56
59419;BME280;45224;50.904;6.038;2023-07-30T02:30:18;99332.41;;;16.99;77.93
59419;BME280;45224;50.904;6.038;2023-07-30T02:31:48;99331.75;;;16.92;77.49
59419;BME280;45224;50.904;6.038;2023-07-30T02:33:19;99325.09;;;16.82;75.63
59419;BME280;45224;50.904;6.038;2023-07-30T02:34:49;99329.56;;;16.78;72.55
59419;BME280;45224;50.904;6.038;2023-07-30T02:36:20;99332.22;;;16.77;72.12
59419;BME280;45224;50.904;6.038;2023-07-30T02:37:50;99323.50;;;16.78;71.53
59419;BME280;45224;50.904;6.038;2023-07-30T02:39:21;99326.84;;;16.82;71.40
59419;BME280;45224;50.904;6.038;2023-07-30T02:40:51;99340.94;;;16.76;71.45
59419;BME280;45224;50.904;6.038;2023-07-30T02:42:22;99336.59;;;16.76;72.19
59419;BME280;45224;50.904;6.038;2023-07-30T02:43:52;99340.94;;;16.76;73.03
59419;BME280;45224;50.904;6.038;2023-07-30T02:45:23;99332.88;;;16.84;73.00
59419;BME280;45224;50.904;6.038;2023-07-30T02:46:53;99328.63;;;16.81;73.23
59419;BME280;45224;50.904;6.038;2023-07-30T02:48:24;99334.63;;;16.83;73.65
59419;BME280;45224;50.904;6.038;2023-07-30T02:49:54;99319.97;;;16.79;73.68
59419;BME280;45224;50.904;6.038;2023-07-30T02:51:25;99323.25;;;16.84;73.90
59419;BME280;45224;50.904;6.038;2023-07-30T02:52:55;99314.84;;;16.76;74.45
59419;BME280;45224;50.904;6.038;2023-07-30T02:54:26;99320.16;;;16.73;75.07
59419;BME280;45224;50.904;6.038;2023-07-30T02:55:56;99319.22;;;16.75;75.54
59419;BME280;45224;50.904;6.038;2023-07-30T02:57:27;99320.94;;;16.76;75.68
59419;BME280;45224;50.904;6.038;2023-07-30T02:58:58;99320.16;;;16.73;75.51
59419;BME280;45224;50.904;6.038;2023-07-30T03:00:29;99317.31;;;16.80;75.17
59419;BME280;45224;50.904;6.038;2023-07-30T03:02:00;99330.50;;;16.76;75.34
59419;BME280;45224;50.904;6.038;2023-07-30T03:03:30;99321.88;;;16.74;75.49
59419;BME280;45224;50.904;6.038;2023-07-30T03:05:01;99330.25;;;16.85;75.29
59419;BME280;45224;50.904;6.038;2023-07-30T03:06:31;99323.41;;;16.81;74.39
59419;BME280;45224;50.904;6.038;2023-07-30T03:08:02;99327.56;;;16.87;74.22
59419;BME280;45224;50.904;6.038;2023-07-30T03:09:32;99324.13;;;16.86;73.63
59419;BME280;45224;50.904;6.038;2023-07-30T03:11:03;99331.09;;;16.84;73.32
59419;BME280;45224;50.904;6.038;2023-07-30T03:12:33;99321.97;;;16.71;72.94
59419;BME280;45224;50.904;6.038;2023-07-30T03:14:04;99318.19;;;16.81;72.60
59419;BME280;45224;50.904;6.038;2023-07-30T03:15:34;99326.00;;;16.81;72.47
59419;BME280;45224;50.904;6.038;2023-07-30T03:17:05;99312.88;;;16.83;71.75
59419;BME280;45224;50.904;6.038;2023-07-30T03:18:35;99321.69;;;16.80;71.02
59419;BME280;45224;50.904;6.038;2023-07-30T03:20:06;99312.84;;;16.57;70.66
59419;BME280;45224;50.904;6.038;2023-07-30T03:21:37;99334.13;;;16.72;70.29
59419;BME280;45224;50.904;6.038;2023-07-30T03:23:07;99333.97;;;16.76;69.91
59419;BME280;45224;50.904;6.038;2023-07-30T03:24:38;99330.91;;;16.64;69.73
59419;BME280;45224;50.904;6.038;2023-07-30T03:26:08;99334.03;;;16.75;70.06
59419;BME280;45224;50.904;6.038;2023-07-30T03:27:39;99334.13;;;16.72;69.37
59419;BME280;45224;50.904;6.038;2023-07-30T03:29:09;99337.59;;;16.72;68.91
59419;BME280;45224;50.904;6.038;2023-07-30T03:30:40;99316.34;;;16.56;69.42
59419;BME280;45224;50.904;6.038;2023-07-30T03:32:11;99332.59;;;16.65;68.68
59419;BME280;45224;50.904;6.038;2023-07-30T03:33:41;99327.28;;;16.68;69.00
59419;BME280;45224;50.904;6.038;2023-07-30T03:35:16;99331.31;;;16.51;68.59
59419;BME280;45224;50.904;6.038;2023-07-30T03:36:47;99334.59;;;16.56;69.36
59419;BME280;45224;50.904;6.038;2023-07-30T03:38:18;99341.53;;;16.57;69.31
59419;BME280;45224;50.904;6.038;2023-07-30T03:39:48;99332.69;;;16.61;69.02
59419;BME280;45224;50.904;6.038;2023-07-30T03:41:18;99345.00;;;16.58;68.89
59419;BME280;45224;50.904;6.038;2023-07-30T03:42:50;99346.53;;;16.37;69.14
59419;BME280;45224;50.904;6.038;2023-07-30T03:44:21;99345.44;;;16.44;69.11
59419;BME280;45224;50.904;6.038;2023-07-30T03:45:51;99348.91;;;16.45;69.69
59419;BME280;45224;50.904;6.038;2023-07-30T03:47:21;99349.78;;;16.43;69.63
59419;BME280;45224;50.904;6.038;2023-07-30T03:48:52;99362.69;;;16.48;70.10
59419;BME280;45224;50.904;6.038;2023-07-30T03:50:23;99350.50;;;16.49;69.88
59419;BME280;45224;50.904;6.038;2023-07-30T03:51:53;99360.00;;;16.51;70.13
59419;BME280;45224;50.904;6.038;2023-07-30T03:53:24;99351.31;;;16.51;70.23
59419;BME280;45224;50.904;6.038;2023-07-30T03:54:55;99364.16;;;16.58;70.10
59419;BME280;45224;50.904;6.038;2023-07-30T03:56:25;99366.41;;;16.41;70.88
59419;BME280;45224;50.904;6.038;2023-07-30T03:57:56;99360.88;;;16.50;71.69
59419;BME280;45224;50.904;6.038;2023-07-30T03:59:28;99363.66;;;16.46;72.01
59419;BME280;45224;50.904;6.038;2023-07-30T04:00:59;99359.38;;;16.43;72.35
59419;BME280;45224;50.904;6.038;2023-07-30T04:02:30;99368.75;;;16.49;72.63
59419;BME280;45224;50.904;6.038;2023-07-30T04:04:01;99371.72;;;16.38;74.66
59419;BME280;45224;50.904;6.038;2023-07-30T04:05:33;99374.09;;;16.46;74.61
59419;BME280;45224;50.904;6.038;2023-07-30T04:07:04;99370.63;;;16.45;75.67
59419;BME280;45224;50.904;6.038;2023-07-30T04:08:34;99375.13;;;16.40;76.74
59419;BME280;45224;50.904;6.038;2023-07-30T04:10:05;99367.25;;;16.41;77.20
59419;BME280;45224;50.904;6.038;2023-07-30T04:11:36;99373.63;;;16.33;77.83
59419;BME280;45224;50.904;6.038;2023-07-30T04:13:08;99378.69;;;16.37;78.93
59419;BME280;45224;50.904;6.038;2023-07-30T04:14:38;99371.16;;;16.28;80.48
59419;BME280;45224;50.904;6.038;2023-07-30T04:16:09;99373.91;;;16.23;80.87
59419;BME280;45224;50.904;6.038;2023-07-30T04:17:39;99379.78;;;16.30;80.41
59419;BME280;45224;50.904;6.038;2023-07-30T04:19:10;99374.25;;;16.11;82.64
59419;BME280;45224;50.904;6.038;2023-07-30T04:20:40;99359.94;;;15.95;83.37
59419;BME280;45224;50.904;6.038;2023-07-30T04:22:12;99374.41;;;16.05;83.47
59419;BME280;45224;50.904;6.038;2023-07-30T04:23:43;99370.47;;;15.92;84.78
59419;BME280;45224;50.904;6.038;2023-07-30T04:25:14;99371.25;;;15.94;84.77
59419;BME280;45224;50.904;6.038;2023-07-30T04:26:44;99385.09;;;15.97;85.69
59419;BME280;45224;50.904;6.038;2023-07-30T04:28:15;99380.09;;;15.90;86.59
59419;BME280;45224;50.904;6.038;2023-07-30T04:29:46;99374.06;;;15.87;86.58
59419;BME280;45224;50.904;6.038;2023-07-30T04:31:16;99372.47;;;15.82;87.14
59419;BME280;45224;50.904;6.038;2023-07-30T04:32:47;99377.78;;;15.79;87.85
59419;BME280;45224;50.904;6.038;2023-07-30T04:34:17;99361.59;;;15.66;88.49
59419;BME280;45224;50.904;6.038;2023-07-30T04:35:48;99377.06;;;15.72;88.04
59419;BME280;45224;50.904;6.038;2023-07-30T04:37:19;99378.94;;;15.67;88.38
59419;BME280;45224;50.904;6.038;2023-07-30T04:38:50;99361.94;;;15.54;90.00
59419;BME280;45224;50.904;6.038;2023-07-30T04:40:22;99372.38;;;15.54;89.96
59419;BME280;45224;50.904;6.038;2023-07-30T04:41:52;99362.09;;;15.47;91.06
59419;BME280;45224;50.904;6.038;2023-07-30T04:43:23;99368.03;;;15.52;90.39
59419;BME280;45224;50.904;6.038;2023-07-30T04:44:58;99371.53;;;15.51;90.58
59419;BME280;45224;50.904;6.038;2023-07-30T04:46:29;99373.25;;;15.52;90.59
59419;BME280;45224;50.904;6.038;2023-07-30T04:48:01;99364.41;;;15.58;90.64
59419;BME280;45224;50.904;6.038;2023-07-30T04:49:31;99356.75;;;15.54;91.29
59419;BME280;45224;50.904;6.038;2023-07-30T04:51:02;99367.03;;;15.57;92.03
59419;BME280;45224;50.904;6.038;2023-07-30T04:52:36;99362.16;;;15.46;92.63
59419;BME280;45224;50.904;6.038;2023-07-30T04:54:06;99367.31;;;15.47;93.44
59419;BME280;45224;50.904;6.038;2023-07-30T04:55:37;99364.78;;;15.44;93.05
59419;BME280;45224;50.904;6.038;2023-07-30T04:57:07;99372.69;;;15.41;93.41
59419;BME280;45224;50.904;6.038;2023-07-30T04:58:38;99369.19;;;15.42;93.92
59419;BME280;45224;50.904;6.038;2023-07-30T05:00:09;99371.91;;;15.38;94.64
59419;BME280;45224;50.904;6.038;2023-07-30T05:01:39;99367.56;;;15.38;94.44
59419;BME280;45224;50.904;6.038;2023-07-30T05:03:10;99373.50;;;15.43;94.30
59419;BME280;45224;50.904;6.038;2023-07-30T05:04:41;99379.56;;;15.44;95.11
59419;BME280;45224;50.904;6.038;2023-07-30T05:06:11;99371.88;;;15.39;95.57
59419;BME280;45224;50.904;6.038;2023-07-30T05:07:42;99384.16;;;15.34;95.59
59419;BME280;45224;50.904;6.038;2023-07-30T05:09:12;99384.81;;;15.42;94.60
59419;BME280;45224;50.904;6.038;2023-07-30T05:10:42;99380.47;;;15.43;95.14
59419;BME280;45224;50.904;6.038;2023-07-30T05:12:13;99393.38;;;15.47;94.62
59419;BME280;45224;50.904;6.038;2023-07-30T05:13:43;99386.50;;;15.43;95.19
59419;BME280;45224;50.904;6.038;2023-07-30T05:15:14;99385.66;;;15.43;95.73
59419;BME280;45224;50.904;6.038;2023-07-30T05:16:45;99383.19;;;15.38;95.62
59419;BME280;45224;50.904;6.038;2023-07-30T05:18:15;99398.50;;;15.50;95.14
59419;BME280;45224;50.904;6.038;2023-07-30T05:19:45;99395.97;;;15.47;96.06
59419;BME280;45224;50.904;6.038;2023-07-30T05:21:17;99385.78;;;15.38;96.26
59419;BME280;45224;50.904;6.038;2023-07-30T05:22:47;99393.44;;;15.44;96.23
59419;BME280;45224;50.904;6.038;2023-07-30T05:24:17;99395.97;;;15.47;96.08
59419;BME280;45224;50.904;6.038;2023-07-30T05:25:48;99385.44;;;15.52;96.13
59419;BME280;45224;50.904;6.038;2023-07-30T05:27:18;99388.88;;;15.52;97.31
59419;BME280;45224;50.904;6.038;2023-07-30T05:28:49;99381.16;;;15.49;97.23
59419;BME280;45224;50.904;6.038;2023-07-30T05:30:19;99378.53;;;15.49;97.42
59419;BME280;45224;50.904;6.038;2023-07-30T05:31:50;99374.13;;;15.51;96.90
59419;BME280;45224;50.904;6.038;2023-07-30T05:33:20;99372.44;;;15.50;97.34
59419;BME280;45224;50.904;6.038;2023-07-30T05:34:51;99376.06;;;15.45;98.42
59419;BME280;45224;50.904;6.038;2023-07-30T05:36:22;99375.94;;;15.49;97.46
59419;BME280;45224;50.904;6.038;2023-07-30T05:37:52;99380.22;;;15.52;97.15
59419;BME280;45224;50.904;6.038;2023-07-30T05:39:23;99375.09;;;15.49;96.13
59419;BME280;45224;50.904;6.038;2023-07-30T05:40:53;99375.94;;;15.49;96.44
59419;BME280;45224;50.904;6.038;2023-07-30T05:42:24;99387.41;;;15.44;95.46
59419;BME280;45224;50.904;6.038;2023-07-30T05:43:54;99375.31;;;15.40;95.19
59419;BME280;45224;50.904;6.038;2023-07-30T05:45:24;99381.00;;;15.56;93.99
59419;BME280;45224;50.904;6.038;2023-07-30T05:46:55;99382.59;;;15.60;94.16
59419;BME280;45224;50.904;6.038;2023-07-30T05:48:25;99382.44;;;15.66;93.75
59419;BME280;45224;50.904;6.038;2023-07-30T05:49:56;99387.81;;;15.60;94.33
59419;BME280;45224;50.904;6.038;2023-07-30T05:51:26;99383.31;;;15.66;93.96
59419;BME280;45224;50.904;6.038;2023-07-30T05:52:57;99386.56;;;15.75;93.09
59419;BME280;45224;50.904;6.038;2023-07-30T05:54:27;99385.69;;;15.74;93.64
59419;BME280;45224;50.904;6.038;2023-07-30T05:55:58;99393.41;;;15.79;93.09
59419;BME280;45224;50.904;6.038;2023-07-30T05:57:29;99392.41;;;15.84;92.88
59419;BME280;45224;50.904;6.038;2023-07-30T05:59:00;99398.38;;;15.88;92.48
59419;BME280;45224;50.904;6.038;2023-07-30T06:00:30;99402.75;;;15.87;91.74
59419;BME280;45224;50.904;6.038;2023-07-30T06:02:02;99409.66;;;15.88;91.49
59419;BME280;45224;50.904;6.038;2023-07-30T06:03:39;99401.31;;;15.74;92.89
59419;BME280;45224;50.904;6.038;2023-07-30T06:05:12;99404.59;;;15.82;92.19
59419;BME280;45224;50.904;6.038;2023-07-30T06:06:42;99412.28;;;15.87;91.80
59419;BME280;45224;50.904;6.038;2023-07-30T06:08:13;99416.50;;;15.93;91.55
59419;BME280;45224;50.904;6.038;2023-07-30T06:09:43;99419.06;;;15.94;91.92
59419;BME280;45224;50.904;6.038;2023-07-30T06:11:15;99413.19;;;15.87;91.90
59419;BME280;45224;50.904;6.038;2023-07-30T06:12:46;99419.91;;;15.95;91.53
59419;BME280;45224;50.904;6.038;2023-07-30T06:14:16;99416.34;;;15.99;91.67
59419;BME280;45224;50.904;6.038;2023-07-30T06:15:47;99422.47;;;15.96;92.48
59419;BME280;45224;50.904;6.038;2023-07-30T06:17:17;99422.31;;;16.02;91.99
59419;BME280;45224;50.904;6.038;2023-07-30T06:18:48;99416.25;;;16.02;91.38
59419;BME280;45224;50.904;6.038;2023-07-30T06:20:18;99421.41;;;16.03;92.20
59419;BME280;45224;50.904;6.038;2023-07-30T06:21:49;99419.53;;;16.09;91.92
59419;BME280;45224;50.904;6.038;2023-07-30T06:23:19;99425.59;;;16.09;91.94
59419;BME280;45224;50.904;6.038;2023-07-30T06:24:50;99410.66;;;16.14;91.99
59419;BME280;45224;50.904;6.038;2023-07-30T06:26:20;99424.72;;;16.10;92.58
59419;BME280;45224;50.904;6.038;2023-07-30T06:27:51;99425.50;;;16.12;92.59
59419;BME280;45224;50.904;6.038;2023-07-30T06:29:21;99414.28;;;16.10;92.62
59419;BME280;45224;50.904;6.038;2023-07-30T06:30:52;99398.38;;;16.18;91.91
59419;BME280;45224;50.904;6.038;2023-07-30T06:32:22;99426.31;;;16.14;92.50
59419;BME280;45224;50.904;6.038;2023-07-30T06:33:53;99417.69;;;16.12;92.91
59419;BME280;45224;50.904;6.038;2023-07-30T06:35:23;99425.22;;;16.23;93.11
59419;BME280;45224;50.904;6.038;2023-07-30T06:36:54;99421.50;;;16.30;93.09
59419;BME280;45224;50.904;6.038;2023-07-30T06:38:25;99428.66;;;16.23;92.97
59419;BME280;45224;50.904;6.038;2023-07-30T06:39:55;99405.22;;;16.22;92.87
59419;BME280;45224;50.904;6.038;2023-07-30T06:41:26;99413.78;;;16.27;93.37
59419;BME280;45224;50.904;6.038;2023-07-30T06:42:56;99405.28;;;16.20;94.29
59419;BME280;45224;50.904;6.038;2023-07-30T06:44:27;99410.19;;;16.31;94.38
59419;BME280;45224;50.904;6.038;2023-07-30T06:45:57;99422.09;;;16.40;93.96
59419;BME280;45224;50.904;6.038;2023-07-30T06:47:28;99416.66;;;16.48;93.95
59419;BME280;45224;50.904;6.038;2023-07-30T06:48:58;99417.41;;;16.51;92.75
59419;BME280;45224;50.904;6.038;2023-07-30T06:50:29;99413.19;;;16.47;92.91
59419;BME280;45224;50.904;6.038;2023-07-30T06:51:59;99421.13;;;16.44;92.85
59419;BME280;45224;50.904;6.038;2023-07-30T06:53:30;99430.38;;;16.54;92.13
59419;BME280;45224;50.904;6.038;2023-07-30T06:55:01;99427.88;;;16.50;92.77
59419;BME280;45224;50.904;6.038;2023-07-30T06:56:33;99426.81;;;16.57;92.17
59419;BME280;45224;50.904;6.038;2023-07-30T06:58:03;99432.19;;;16.52;92.25
59419;BME280;45224;50.904;6.038;2023-07-30T06:59:34;99429.59;;;16.51;92.65
59419;BME280;45224;50.904;6.038;2023-07-30T07:01:04;99440.75;;;16.56;92.15
59419;BME280;45224;50.904;6.038;2023-07-30T07:02:35;99441.50;;;16.59;92.11
59419;BME280;45224;50.904;6.038;2023-07-30T07:04:06;99440.72;;;16.57;91.82
59419;BME280;45224;50.904;6.038;2023-07-30T07:05:37;99433.94;;;16.50;92.74
59419;BME280;45224;50.904;6.038;2023-07-30T07:07:07;99434.06;;;16.47;92.74
59419;BME280;45224;50.904;6.038;2023-07-30T07:08:38;99438.50;;;16.43;92.58
59419;BME280;45224;50.904;6.038;2023-07-30T07:10:09;99441.81;;;16.49;92.22
59419;BME280;45224;50.904;6.038;2023-07-30T07:11:41;99440.84;;;16.53;92.54
59419;BME280;45224;50.904;6.038;2023-07-30T07:13:11;99443.78;;;16.12;95.05
59419;BME280;45224;50.904;6.038;2023-07-30T07:14:45;99443.03;;;16.07;95.42
59419;BME280;45224;50.904;6.038;2023-07-30T07:16:15;99451.06;;;16.31;94.44
59419;BME280;45224;50.904;6.038;2023-07-30T07:17:46;99454.50;;;16.33;94.53
59419;BME280;45224;50.904;6.038;2023-07-30T07:19:16;99442.22;;;16.36;94.43
59419;BME280;45224;50.904;6.038;2023-07-30T07:20:47;99452.34;;;16.47;94.14
59419;BME280;45224;50.904;6.038;2023-07-30T07:22:17;99447.88;;;16.51;93.34
59419;BME280;45224;50.904;6.038;2023-07-30T07:23:48;99449.34;;;16.59;92.71
59419;BME280;45224;50.904;6.038;2023-07-30T07:25:19;99448.53;;;16.57;93.38
59419;BME280;45224;50.904;6.038;2023-07-30T07:26:51;99452.47;;;16.71;92.95
59419;BME280;45224;50.904;6.038;2023-07-30T07:28:21;99454.28;;;16.69;92.49
59419;BME280;45224;50.904;6.038;2023-07-30T07:29:52;99455.84;;;16.74;92.29
59419;BME280;45224;50.904;6.038;2023-07-30T07:31:23;99447.16;;;16.74;92.25
59419;BME280;45224;50.904;6.038;2023-07-30T07:32:53;99450.66;;;16.73;92.56
59419;BME280;45224;50.904;6.038;2023-07-30T07:34:25;99443.06;;;16.67;92.54
59419;BME280;45224;50.904;6.038;2023-07-30T07:36:05;99452.38;;;16.74;91.65
59419;BME280;45224;50.904;6.038;2023-07-30T07:37:36;99446.28;;;16.75;92.19
59419;BME280;45224;50.904;6.038;2023-07-30T07:39:07;99448.72;;;16.81;92.09
59419;BME280;45224;50.904;6.038;2023-07-30T07:40:38;99449.34;;;16.89;91.33
59419;BME280;45224;50.904;6.038;2023-07-30T07:42:11;99451.88;;;16.92;90.85
59419;BME280;45224;50.904;6.038;2023-07-30T07:43:46;99442.31;;;16.91;89.79
59419;BME280;45224;50.904;6.038;2023-07-30T07:45:17;99454.41;;;16.94;90.43
59419;BME280;45224;50.904;6.038;2023-07-30T07:46:47;99456.31;;;16.89;89.88
59419;BME280;45224;50.904;6.038;2023-07-30T07:48:18;99460.50;;;16.94;90.41
59419;BME280;45224;50.904;6.038;2023-07-30T07:49:48;99449.19;;;16.94;90.07
59419;BME280;45224;50.904;6.038;2023-07-30T07:51:19;99452.63;;;16.96;89.75
59419;BME280;45224;50.904;6.038;2023-07-30T07:52:50;99458.63;;;16.98;90.04
59419;BME280;45224;50.904;6.038;2023-07-30T07:54:21;99460.03;;;17.08;89.55
59419;BME280;45224;50.904;6.038;2023-07-30T07:55:52;99464.09;;;16.90;89.79
59419;BME280;45224;50.904;6.038;2023-07-30T07:57:22;99465.63;;;16.97;89.27
59419;BME280;45224;50.904;6.038;2023-07-30T07:58:53;99470.66;;;17.04;88.71
59419;BME280;45224;50.904;6.038;2023-07-30T08:00:24;99470.81;;;16.99;89.47
59419;BME280;45224;50.904;6.038;2023-07-30T08:01:55;99471.50;;;17.04;89.29